createdAt,value
2019-01-23T00:01:56.072Z,54.93
2019-01-23T00:04:27.414Z,54.75
2019-01-23T00:06:58.464Z,54.85
2019-01-23T00:09:29.470Z,54.95
2019-01-23T00:12:00.525Z,54.79
2019-01-23T00:14:31.573Z,55.01
2019-01-23T00:17:02.864Z,54.98
2019-01-23T00:19:33.851Z,54.69
2019-01-23T00:22:05.684Z,54.78
2019-01-23T00:24:36.667Z,55.23
2019-01-23T00:27:07.626Z,55.25
2019-01-23T00:29:39.311Z,54.20
2019-01-23T00:32:10.281Z,54.71
2019-01-23T00:34:42.254Z,54.63
2019-01-23T00:37:13.575Z,54.57
2019-01-23T00:39:44.734Z,54.60
2019-01-23T00:42:16.906Z,54.67
2019-01-23T00:44:48.940Z,54.47
2019-01-23T00:47:20.013Z,54.57
2019-01-23T00:49:51.328Z,54.56
2019-01-23T00:52:22.659Z,54.44
2019-01-23T00:54:53.656Z,54.86
2019-01-23T00:57:25.027Z,54.46
2019-01-23T00:59:56.027Z,54.33
2019-01-23T01:02:27.064Z,54.42
2019-01-23T01:04:58.416Z,54.60
2019-01-23T01:07:29.919Z,54.35
2019-01-23T01:10:00.977Z,54.44
2019-01-23T01:12:32.275Z,54.64
2019-01-23T01:15:03.581Z,54.46
2019-01-23T01:17:34.754Z,54.55
2019-01-23T01:20:08.388Z,54.96
2019-01-23T01:22:39.576Z,54.50
2019-01-23T01:25:13.859Z,54.82
2019-01-23T01:27:45.257Z,55.29
2019-01-23T01:30:22.362Z,55.29
2019-01-23T01:32:53.506Z,55.40
2019-01-23T01:35:24.641Z,55.20
2019-01-23T01:37:55.651Z,55.30
2019-01-23T01:40:27.821Z,55.11
2019-01-23T01:42:58.988Z,54.96
2019-01-23T01:45:30.090Z,55.04
2019-01-23T01:48:01.176Z,55.12
2019-01-23T01:50:32.501Z,55.18
2019-01-23T01:53:03.631Z,55.14
2019-01-23T01:55:35.159Z,54.56
2019-01-23T01:58:10.013Z,54.46
2019-01-23T02:00:39.568Z,54.73
2019-01-23T02:03:10.593Z,54.63
2019-01-23T02:05:41.615Z,54.46
2019-01-23T02:08:12.962Z,54.96
2019-01-23T02:10:43.944Z,55.06
2019-01-23T02:13:15.256Z,54.98
2019-01-23T02:15:46.239Z,55.27
2019-01-23T02:18:17.235Z,55.17
2019-01-23T02:20:48.486Z,55.73
2019-01-23T02:23:19.951Z,55.43
2019-01-23T02:25:51.159Z,55.67
2019-01-23T02:28:22.447Z,55.26
2019-01-23T02:30:54.383Z,55.04
2019-01-23T02:33:26.038Z,55.13
2019-01-23T02:35:57.084Z,55.05
2019-01-23T02:38:28.164Z,55.21
2019-01-23T02:40:59.496Z,55.44
2019-01-23T02:43:30.570Z,55.53
2019-01-23T02:46:02.507Z,55.17
2019-01-23T02:48:34.088Z,55.46
2019-01-23T02:51:05.378Z,55.58
2019-01-23T02:53:36.345Z,55.88
2019-01-23T02:56:08.816Z,55.77
2019-01-23T02:58:39.863Z,55.59
2019-01-23T03:01:10.910Z,55.46
2019-01-23T03:03:41.887Z,55.25
2019-01-23T03:06:13.084Z,55.16
2019-01-23T03:08:44.380Z,54.98
2019-01-23T03:11:15.420Z,55.07
2019-01-23T03:13:46.376Z,54.94
2019-01-23T03:16:17.402Z,54.77
2019-01-23T03:18:48.729Z,55.31
2019-01-23T03:21:20.109Z,55.55
2019-01-23T03:23:52.406Z,55.65
2019-01-23T03:26:23.639Z,55.65
2019-01-23T03:28:54.604Z,55.33
2019-01-23T03:31:25.930Z,54.88
2019-01-23T03:33:56.895Z,55.07
2019-01-23T03:36:28.254Z,55.21
2019-01-23T03:38:59.452Z,54.89
2019-01-23T03:41:30.429Z,54.88
2019-01-23T03:44:01.712Z,55.00
2019-01-23T03:46:33.265Z,54.88
2019-01-23T03:49:04.797Z,54.79
2019-01-23T03:51:35.883Z,54.84
2019-01-23T03:54:07.213Z,55.29
2019-01-23T03:56:38.579Z,54.92
2019-01-23T03:59:09.570Z,55.17
2019-01-23T04:01:40.725Z,55.47
2019-01-23T04:04:12.101Z,55.20
2019-01-23T04:06:43.679Z,55.14
2019-01-23T04:09:14.638Z,55.12
2019-01-23T04:11:45.708Z,55.38
2019-01-23T04:14:16.941Z,55.42
2019-01-23T04:16:47.985Z,55.17
2019-01-23T04:19:20.004Z,55.46
2019-01-23T04:21:51.068Z,55.46
2019-01-23T04:24:23.462Z,55.53
2019-01-23T04:26:54.449Z,55.91
2019-01-23T04:29:25.816Z,55.64
2019-01-23T04:31:57.674Z,55.44
2019-01-23T04:34:28.956Z,55.46
2019-01-23T04:36:59.945Z,55.22
2019-01-23T04:39:31.125Z,55.21
2019-01-23T04:42:02.148Z,55.47
2019-01-23T04:44:33.510Z,55.74
2019-01-23T04:47:04.534Z,55.93
2019-01-23T04:49:35.747Z,56.13
2019-01-23T04:52:15.644Z,55.88
2019-01-23T04:54:46.858Z,56.02
2019-01-23T04:57:17.825Z,56.17
2019-01-23T04:59:48.813Z,55.69
2019-01-23T05:02:19.790Z,55.59
2019-01-23T05:04:51.142Z,55.70
2019-01-23T05:07:22.214Z,55.65
2019-01-23T05:09:53.908Z,55.48
2019-01-23T05:12:25.008Z,55.28
2019-01-23T05:14:56.067Z,55.01
2019-01-23T05:17:27.376Z,55.01
2019-01-23T05:19:58.433Z,55.15
2019-01-23T05:22:29.487Z,55.10
2019-01-23T05:25:00.584Z,55.64
2019-01-23T05:27:31.786Z,56.12
2019-01-23T05:30:02.900Z,55.98
2019-01-23T05:32:34.053Z,55.84
2019-01-23T05:35:06.068Z,55.69
2019-01-23T05:37:38.409Z,55.73
2019-01-23T05:40:09.931Z,56.35
2019-01-23T05:42:41.111Z,56.37
2019-01-23T05:45:13.797Z,56.36
2019-01-23T05:47:44.903Z,56.39
2019-01-23T05:50:17.010Z,56.29
2019-01-23T05:52:49.064Z,56.66
2019-01-23T05:55:20.053Z,56.78
2019-01-23T05:57:51.068Z,57.01
2019-01-23T06:00:23.138Z,56.53
2019-01-23T06:02:55.258Z,55.63
2019-01-23T06:05:26.623Z,55.97
2019-01-23T06:07:58.295Z,55.57
2019-01-23T06:10:29.832Z,55.66
2019-01-23T06:13:00.858Z,55.71
2019-01-23T06:15:32.108Z,55.46
2019-01-23T06:18:03.419Z,55.68
2019-01-23T06:20:34.589Z,55.33
2019-01-23T06:23:05.780Z,55.47
2019-01-23T06:25:36.765Z,55.15
2019-01-23T06:28:07.798Z,54.74
2019-01-23T06:30:39.150Z,54.59
2019-01-23T06:33:10.193Z,54.06
2019-01-23T06:35:41.541Z,54.30
2019-01-23T06:38:12.782Z,54.51
2019-01-23T06:40:43.840Z,54.68
2019-01-23T06:43:14.861Z,54.20
2019-01-23T06:45:45.971Z,54.49
2019-01-23T06:48:17.982Z,54.30
2019-01-23T06:50:49.357Z,54.15
2019-01-23T06:53:31.279Z,54.08
2019-01-23T06:56:16.310Z,54.31
2019-01-23T06:58:48.048Z,54.04
2019-01-23T07:01:19.258Z,54.18
2019-01-23T07:03:51.258Z,54.57
2019-01-23T07:06:22.313Z,54.72
2019-01-23T07:08:54.734Z,54.34
2019-01-23T07:11:25.713Z,54.37
2019-01-23T07:13:56.761Z,54.34
2019-01-23T07:16:27.721Z,54.44
2019-01-23T07:18:58.730Z,54.89
2019-01-23T07:21:30.893Z,54.46
2019-01-23T07:24:01.881Z,54.55
2019-01-23T07:26:32.849Z,54.71
2019-01-23T07:29:03.858Z,54.71
2019-01-23T07:31:34.835Z,54.81
2019-01-23T07:34:06.400Z,54.96
2019-01-23T07:36:37.388Z,55.28
2019-01-23T07:39:11.160Z,55.46
2019-01-23T07:41:43.075Z,55.53
2019-01-23T07:44:15.085Z,55.66
2019-01-23T07:46:46.534Z,55.66
2019-01-23T07:49:17.599Z,55.73
2019-01-23T07:51:48.578Z,55.98
2019-01-23T07:54:19.675Z,56.52
2019-01-23T07:56:50.740Z,56.36
2019-01-23T07:59:21.739Z,56.16
2019-01-23T08:01:52.717Z,56.14
2019-01-23T08:04:25.263Z,56.82
2019-01-23T08:06:56.221Z,56.76
2019-01-23T08:09:27.473Z,56.42
2019-01-23T08:11:58.583Z,56.15
2019-01-23T08:14:30.887Z,56.33
2019-01-23T08:17:04.475Z,55.71
2019-01-23T08:19:35.440Z,55.79
2019-01-23T08:22:09.822Z,55.72
2019-01-23T08:24:41.859Z,55.40
2019-01-23T08:27:13.071Z,55.41
2019-01-23T08:29:44.033Z,54.83
2019-01-23T08:32:15.055Z,55.09
2019-01-23T08:34:46.105Z,55.06
2019-01-23T08:37:17.360Z,54.84
2019-01-23T08:39:48.316Z,54.51
2019-01-23T08:42:19.601Z,55.16
2019-01-23T08:44:50.890Z,55.18
2019-01-23T08:47:22.172Z,54.74
2019-01-23T08:49:53.287Z,54.80
2019-01-23T08:52:25.476Z,55.15
2019-01-23T08:54:56.832Z,54.97
2019-01-23T08:57:27.878Z,55.16
2019-01-23T08:59:59.361Z,55.14
2019-01-23T09:02:31.320Z,54.82
2019-01-23T09:05:02.595Z,54.99
2019-01-23T09:07:35.042Z,54.58
2019-01-23T09:10:10.796Z,54.57
2019-01-23T09:12:41.825Z,54.31
2019-01-23T09:15:13.684Z,53.40
2019-01-23T09:17:45.037Z,53.94
2019-01-23T09:20:18.270Z,53.71
2019-01-23T09:22:49.554Z,53.62
2019-01-23T09:25:22.854Z,53.76
2019-01-23T09:27:54.144Z,53.98
2019-01-23T09:30:52.753Z,53.94
2019-01-23T09:34:05.759Z,53.22
2019-01-23T09:37:27.410Z,52.86
2019-01-23T09:40:55.638Z,52.57
2019-01-23T09:44:19.428Z,52.27
2019-01-23T09:47:28.898Z,52.28
2019-01-23T09:50:33.949Z,52.36
2019-01-23T09:53:43.080Z,51.89
2019-01-23T09:56:17.283Z,52.50
2019-01-23T09:58:48.249Z,51.72
2019-01-23T10:01:19.318Z,52.00
2019-01-23T10:03:50.519Z,51.39
2019-01-23T10:06:21.488Z,50.96
2019-01-23T10:08:53.068Z,50.71
2019-01-23T10:11:24.032Z,50.29
2019-01-23T10:13:55.353Z,50.13
2019-01-23T10:16:26.483Z,49.94
2019-01-23T10:18:57.726Z,50.05
2019-01-23T10:21:28.919Z,50.47
2019-01-23T10:24:00.315Z,50.28
2019-01-23T10:26:32.130Z,50.17
2019-01-23T10:29:03.112Z,50.53
2019-01-23T10:31:34.091Z,50.67
2019-01-23T10:34:05.459Z,50.80
2019-01-23T10:36:36.959Z,50.22
2019-01-23T10:39:09.783Z,50.90
2019-01-23T10:41:40.913Z,50.96
2019-01-23T10:44:11.966Z,50.53
2019-01-23T10:46:43.018Z,50.24
2019-01-23T10:49:14.009Z,49.95
2019-01-23T10:51:44.970Z,49.03
2019-01-23T10:54:15.923Z,48.91
2019-01-23T10:56:47.205Z,49.05
2019-01-23T10:59:18.603Z,49.32
2019-01-23T11:01:49.573Z,48.49
2019-01-23T11:04:20.977Z,48.42
2019-01-23T11:06:52.122Z,49.15
2019-01-23T11:09:23.448Z,48.99
2019-01-23T11:11:54.641Z,49.05
2019-01-23T11:14:25.701Z,48.71
2019-01-23T11:16:56.765Z,48.45
2019-01-23T11:19:28.116Z,48.55
2019-01-23T11:21:59.093Z,48.82
2019-01-23T11:24:30.287Z,48.92
2019-01-23T11:27:01.404Z,48.91
2019-01-23T11:29:33.781Z,49.86
2019-01-23T11:32:05.437Z,50.05
2019-01-23T11:34:36.399Z,50.58
2019-01-23T11:37:07.456Z,50.63
2019-01-23T11:39:38.824Z,51.14
2019-01-23T11:42:10.285Z,51.76
2019-01-23T11:44:41.420Z,51.35
2019-01-23T11:47:12.485Z,50.83
2019-01-23T11:49:43.451Z,51.54
2019-01-23T11:52:14.847Z,51.89
2019-01-23T11:54:45.892Z,52.08
2019-01-23T11:57:17.237Z,52.41
2019-01-23T11:59:48.284Z,52.41
2019-01-23T12:02:20.342Z,51.60
2019-01-23T12:04:52.515Z,51.79
2019-01-23T12:07:24.557Z,51.87
2019-01-23T12:09:55.535Z,52.07
2019-01-23T12:12:26.886Z,52.14
2019-01-23T12:14:58.087Z,51.91
2019-01-23T12:17:29.317Z,51.97
2019-01-23T12:20:00.602Z,51.32
2019-01-23T12:22:32.622Z,52.33
2019-01-23T12:25:04.676Z,51.94
2019-01-23T12:27:36.083Z,51.40
2019-01-23T12:30:12.679Z,51.90
2019-01-23T12:32:43.756Z,51.69
2019-01-23T12:35:14.798Z,51.67
2019-01-23T12:37:45.910Z,52.02
2019-01-23T12:40:17.151Z,51.88
2019-01-23T12:42:48.656Z,51.91
2019-01-23T12:45:26.170Z,52.02
2019-01-23T12:47:57.621Z,52.79
2019-01-23T12:50:31.159Z,52.62
2019-01-23T12:53:02.227Z,52.60
2019-01-23T12:55:36.774Z,52.44
2019-01-23T12:58:07.866Z,52.47
2019-01-23T13:00:39.448Z,52.50
2019-01-23T13:03:10.580Z,53.09
2019-01-23T13:05:41.733Z,53.51
2019-01-23T13:08:12.914Z,53.31
2019-01-23T13:10:43.873Z,54.23
2019-01-23T13:13:14.874Z,53.60
2019-01-23T13:15:46.245Z,53.50
2019-01-23T13:18:17.240Z,53.71
2019-01-23T13:20:48.642Z,53.53
2019-01-23T13:23:20.032Z,53.34
2019-01-23T13:25:51.437Z,52.97
2019-01-23T13:28:22.478Z,53.20
2019-01-23T13:30:54.195Z,53.11
2019-01-23T13:33:25.303Z,53.25
2019-01-23T13:35:56.371Z,53.77
2019-01-23T13:38:27.338Z,54.36
2019-01-23T13:40:58.638Z,53.84
2019-01-23T13:43:29.677Z,53.75
2019-01-23T13:46:01.276Z,53.83
2019-01-23T13:48:32.404Z,53.58
2019-01-23T13:51:04.869Z,53.32
2019-01-23T13:53:35.992Z,52.56
2019-01-23T13:56:07.144Z,53.14
2019-01-23T13:58:41.906Z,52.75
2019-01-23T14:01:11.113Z,53.25
2019-01-23T14:03:42.361Z,54.07
2019-01-23T14:06:13.362Z,53.99
2019-01-23T14:08:44.619Z,54.14
2019-01-23T14:11:15.824Z,54.49
2019-01-23T14:13:47.119Z,53.97
2019-01-23T14:16:18.743Z,54.31
2019-01-23T14:18:49.707Z,54.39
2019-01-23T14:21:20.695Z,54.27
2019-01-23T14:23:51.893Z,54.30
2019-01-23T14:26:22.884Z,54.06
2019-01-23T14:28:53.891Z,54.14
2019-01-23T14:31:25.263Z,53.88
2019-01-23T14:33:57.615Z,53.70
2019-01-23T14:36:28.755Z,53.55
2019-01-23T14:39:00.026Z,53.49
2019-01-23T14:41:30.998Z,53.11
2019-01-23T14:44:02.066Z,53.54
2019-01-23T14:46:33.044Z,53.42
2019-01-23T14:49:05.470Z,53.19
2019-01-23T14:51:37.303Z,53.07
2019-01-23T14:54:08.333Z,52.98
2019-01-23T14:56:39.454Z,53.74
2019-01-23T14:59:10.612Z,53.63
2019-01-23T15:01:41.582Z,53.71
2019-01-23T15:04:12.920Z,53.57
2019-01-23T15:06:45.155Z,53.96
2019-01-23T15:09:16.244Z,53.99
2019-01-23T15:11:47.258Z,53.69
2019-01-23T15:14:18.508Z,53.50
2019-01-23T15:16:49.544Z,54.07
2019-01-23T15:19:20.799Z,53.93
2019-01-23T15:21:51.879Z,53.89
2019-01-23T15:24:23.249Z,53.83
2019-01-23T15:26:54.353Z,54.61
2019-01-23T15:29:25.738Z,55.28
2019-01-23T15:31:56.854Z,55.16
2019-01-23T15:34:28.258Z,55.01
2019-01-23T15:36:59.455Z,55.42
2019-01-23T15:39:30.600Z,55.04
2019-01-23T15:42:01.836Z,54.79
2019-01-23T15:44:33.156Z,54.69
2019-01-23T15:47:08.271Z,55.02
2019-01-23T15:49:39.735Z,55.58
2019-01-23T15:52:11.201Z,55.80
2019-01-23T15:54:43.663Z,55.67
2019-01-23T15:57:14.970Z,55.17
2019-01-23T15:59:46.241Z,55.61
2019-01-23T16:02:24.098Z,55.50
2019-01-23T16:04:50.605Z,55.88
2019-01-23T16:07:21.742Z,55.50
2019-01-23T16:09:53.503Z,55.25
2019-01-23T16:12:24.975Z,55.48
2019-01-23T16:14:56.497Z,56.01
2019-01-23T16:17:27.707Z,56.29
2019-01-23T16:19:59.491Z,56.13
2019-01-23T16:22:30.627Z,56.61
2019-01-23T16:25:02.296Z,57.10
2019-01-23T16:27:33.910Z,56.41
2019-01-23T16:30:10.085Z,56.31
2019-01-23T16:32:41.324Z,56.78
2019-01-23T16:35:12.917Z,56.83
2019-01-23T16:37:44.567Z,56.88
2019-01-23T16:40:15.851Z,56.82
2019-01-23T16:42:47.147Z,56.83
2019-01-23T16:45:19.246Z,57.23
2019-01-23T16:47:50.783Z,56.71
2019-01-23T16:50:23.361Z,56.32
2019-01-23T16:52:55.529Z,56.20
2019-01-23T16:55:27.187Z,55.80
2019-01-23T16:58:00.146Z,56.40
2019-01-23T17:00:32.127Z,56.76
2019-01-23T17:03:04.064Z,56.47
2019-01-23T17:05:36.678Z,57.00
2019-01-23T17:08:09.490Z,56.39
2019-01-23T17:10:41.042Z,56.55
2019-01-23T17:13:12.432Z,56.74
2019-01-23T17:15:44.197Z,56.52
2019-01-23T17:18:15.582Z,56.40
2019-01-23T17:20:50.048Z,56.53
2019-01-23T17:23:21.747Z,56.57
2019-01-23T17:25:53.343Z,56.00
2019-01-23T17:28:24.658Z,55.85
2019-01-23T17:30:56.213Z,56.23
2019-01-23T17:33:27.588Z,56.51
2019-01-23T17:35:59.573Z,56.82
2019-01-23T17:38:31.102Z,58.07
2019-01-23T17:41:02.452Z,57.69
2019-01-23T17:43:34.981Z,58.39
2019-01-23T17:46:06.485Z,58.15
2019-01-23T17:48:40.456Z,58.17
2019-01-23T17:51:11.804Z,57.95
2019-01-23T17:53:43.475Z,58.16
2019-01-23T17:56:15.294Z,58.17
2019-01-23T17:58:47.389Z,57.83
2019-01-23T18:01:18.899Z,57.14
2019-01-23T18:03:50.587Z,57.39
2019-01-23T18:06:22.378Z,57.74
2019-01-23T18:08:53.975Z,58.03
2019-01-23T18:11:25.664Z,58.04
2019-01-23T18:13:57.220Z,57.63
2019-01-23T18:16:28.928Z,57.53
2019-01-23T18:19:00.734Z,57.51
2019-01-23T18:21:32.887Z,57.52
2019-01-23T18:24:04.489Z,57.02
2019-01-23T18:26:37.675Z,56.88
2019-01-23T18:29:10.762Z,57.61
2019-01-23T18:32:03.338Z,57.73
2019-01-23T18:35:17.311Z,58.44
2019-01-23T18:38:45.863Z,58.51
2019-01-23T18:42:07.867Z,58.74
2019-01-23T18:44:51.669Z,58.55
2019-01-23T18:48:21.724Z,58.44
2019-01-23T18:51:28.510Z,58.31
2019-01-23T18:54:00.470Z,58.79
2019-01-23T18:56:33.688Z,58.28
2019-01-23T18:59:06.064Z,58.25
2019-01-23T19:01:37.780Z,58.18
2019-01-23T19:04:09.643Z,58.13
2019-01-23T19:06:43.237Z,58.08
2019-01-23T19:09:17.686Z,58.01
2019-01-23T19:11:49.402Z,58.16
2019-01-23T19:14:24.608Z,57.94
2019-01-23T19:16:55.453Z,58.33
2019-01-23T19:19:27.452Z,58.21
2019-01-23T19:21:59.486Z,58.09
2019-01-23T19:24:31.429Z,58.40
2019-01-23T19:27:03.604Z,58.62
2019-01-23T19:29:37.494Z,58.47
2019-01-23T19:34:45.208Z,59.06
2019-01-23T19:37:17.099Z,59.18
2019-01-23T19:39:49.005Z,59.00
2019-01-23T19:42:21.322Z,58.91
2019-01-23T19:44:52.982Z,58.43
2019-01-23T19:47:25.015Z,58.22
2019-01-23T19:49:57.061Z,58.04
2019-01-23T19:52:29.425Z,57.74
2019-01-23T19:55:01.844Z,57.60
2019-01-23T19:57:33.998Z,57.77
2019-01-23T20:00:11.131Z,58.09
2019-01-23T20:02:44.133Z,58.06
2019-01-23T20:05:25.247Z,58.17
2019-01-23T20:07:57.516Z,57.98
2019-01-23T20:10:30.269Z,57.54
2019-01-23T20:13:02.256Z,57.87
2019-01-23T20:15:34.082Z,58.04
2019-01-23T20:18:10.779Z,57.40
2019-01-23T20:20:43.134Z,57.63
2019-01-23T20:23:14.898Z,57.53
2019-01-23T20:25:47.941Z,57.28
2019-01-23T20:28:19.932Z,57.55
2019-01-23T20:30:51.736Z,57.09
2019-01-23T20:33:27.876Z,57.15
2019-01-23T20:35:57.377Z,57.23
2019-01-23T20:38:29.028Z,57.32
2019-01-23T20:41:00.999Z,57.33
2019-01-23T20:43:32.760Z,57.84
2019-01-23T20:46:04.645Z,57.55
2019-01-23T20:48:36.667Z,57.45
2019-01-23T20:51:08.611Z,57.46
2019-01-23T20:53:40.281Z,57.57
2019-01-23T20:56:12.121Z,57.05
2019-01-23T20:58:44.522Z,57.29
2019-01-23T21:01:16.387Z,57.04
2019-01-23T21:03:48.047Z,57.96
2019-01-23T21:06:20.223Z,58.06
2019-01-23T21:08:52.148Z,58.36
2019-01-23T21:11:23.710Z,58.73
2019-01-23T21:13:55.273Z,58.98
2019-01-23T21:16:26.954Z,59.57
2019-01-23T21:18:58.623Z,59.45
2019-01-23T21:21:30.367Z,59.58
2019-01-23T21:24:01.850Z,60.03
2019-01-23T21:26:33.508Z,59.86
2019-01-23T21:29:05.635Z,59.86
2019-01-23T21:31:37.207Z,59.81
2019-01-23T21:34:08.738Z,59.65
2019-01-23T21:36:40.163Z,59.17
2019-01-23T21:39:12.732Z,58.78
2019-01-23T21:41:45.237Z,58.76
2019-01-23T21:44:16.507Z,58.83
2019-01-23T21:46:47.867Z,59.09
2019-01-23T21:49:19.401Z,59.65
2019-01-23T21:51:51.801Z,60.18
2019-01-23T21:54:23.382Z,60.39
2019-01-23T21:56:54.709Z,60.04
2019-01-23T21:59:25.956Z,59.96
2019-01-23T22:01:57.597Z,59.76
2019-01-23T22:04:28.951Z,59.60
2019-01-23T22:07:00.158Z,59.65
2019-01-23T22:09:31.396Z,59.98
2019-01-23T22:12:02.380Z,60.22
2019-01-23T22:14:33.423Z,59.75
2019-01-23T22:17:04.899Z,59.65
2019-01-23T22:19:36.057Z,59.61
2019-01-23T22:22:07.924Z,60.18
2019-01-23T22:24:39.172Z,60.04
2019-01-23T22:27:10.317Z,60.12
2019-01-23T22:29:41.518Z,59.68
2019-01-23T22:32:12.515Z,59.71
2019-01-23T22:34:44.114Z,59.69
2019-01-23T22:37:15.163Z,59.60
2019-01-23T22:39:47.453Z,59.16
2019-01-23T22:42:18.433Z,59.43
2019-01-23T22:44:51.196Z,59.41
2019-01-23T22:47:22.537Z,59.58
2019-01-23T22:49:54.308Z,59.86
2019-01-23T22:52:25.279Z,60.27
2019-01-23T22:54:56.615Z,60.25
2019-01-23T22:57:27.627Z,60.81
2019-01-23T22:59:58.594Z,60.51
2019-01-23T23:02:29.730Z,60.38
2019-01-23T23:05:00.880Z,60.25
2019-01-23T23:07:32.166Z,60.25
2019-01-23T23:10:03.655Z,60.68
2019-01-23T23:12:34.628Z,61.37
2019-01-23T23:15:07.133Z,61.11
2019-01-23T23:17:38.186Z,60.88
2019-01-23T23:20:09.901Z,60.49
2019-01-23T23:22:41.158Z,60.13
2019-01-23T23:25:12.352Z,60.35
2019-01-23T23:27:43.718Z,61.06
2019-01-23T23:30:15.341Z,61.49
2019-01-23T23:32:46.561Z,61.49
2019-01-23T23:35:17.682Z,62.04
2019-01-23T23:37:48.656Z,61.72
2019-01-23T23:40:21.210Z,61.68
2019-01-23T23:42:52.623Z,61.57
2019-01-23T23:45:24.078Z,61.71
2019-01-23T23:47:55.146Z,62.21
2019-01-23T23:50:26.102Z,62.71
2019-01-23T23:52:57.230Z,62.23
2019-01-23T23:55:28.281Z,62.74
2019-01-23T23:57:59.694Z,62.63
